Upington, South Africa
Current Conditions -  °F | °C
As of 11:00 AM on Monday 24 Nov 2014 (Local Time) from FAUP Reporting Station
Clear Clear  
Wind Chill: 82°   Ceiling: Unl
Heat Index: 82°   Visibility: 6mi
Dew Point: 36°   Wind: 5mph
Humidity: 19%   Direction: 180°S
Pressure: 30"   Gusts: NA
Location:  28.46°S, 21.23°E
Report Text: FAUP 240900Z 18004KT CAVOK 28/02 Q1016 NOSIG
Loading
Personal Weather Stations






























Interactive Weather Map New forecast layout! Learn more

10-Day Weather Forecast

Advertisements
Track Severe Weather on mobile